Latest Weather Observations for Thargomindah

IDQ60801

Issued at 5:32 pm EST Saturday 5 September 2015 (issued every 30 minutes, with the page automatically refreshed every 10 minutes)

About weather observations | Map of weather stations | Latest weather observations for QLD | Other Formats
Station Details ID: 045025 Name: THARGOMINDAH AIRPORT Lat: -27.99 Lon: 143.81 Height: 130.89 m
Data from the previous 72 hours. | See also: Recent months at Thargomindah
Date/Time
EST
Temp
°C
App
Temp
°C
Dew
Point
Rel
Hum
%
Delta-T
°C
Wind Press
QNH
hPa
Press
MSL
hPa
Rain
since 9 am
mm
Dir
 
Spd
km/h
Gust
km/h
Spd
kts
Gust
kts
05/05:30pm 22.3 18.7 0.8 24 9.9 S 9 13 5 7 1019.6 - 0.0
05/05:00pm 23.0 19.0 0.8 23 10.2 WSW 11 19 6 10 1019.7 - 0.0
05/04:30pm 23.3 19.4 1.0 23 10.4 WSW 11 17 6 9 1019.5 - 0.0
05/04:00pm 22.9 19.0 1.3 24 10.1 S 11 20 6 11 1019.2 - 0.0
05/03:30pm 22.9 19.0 1.3 24 10.1 S 11 19 6 10 1019.4 - 0.0
05/03:00pm 22.9 19.0 1.3 24 10.1 SW 11 24 6 13 1019.4 1018.9 0.0
05/02:30pm 22.3 18.4 1.3 25 9.8 S 11 17 6 9 1019.8 - 0.0
05/02:00pm 22.1 17.9 1.7 26 9.5 SSE 13 26 7 14 1020.3 - 0.0
05/01:30pm 22.3 18.5 1.9 26 9.6 SW 11 19 6 10 1020.7 - 0.0
05/01:00pm 22.6 19.3 2.7 27 9.5 ESE 9 17 5 9 1021.2 - 0.0
05/12:30pm 22.3 18.6 2.4 27 9.4 S 11 20 6 11 1021.7 - 0.0
05/12:00pm 21.8 17.5 3.0 29 9.0 S 15 20 8 11 1022.2 1021.8 0.0
05/11:30am 21.0 17.5 3.7 32 8.3 ESE 11 19 6 10 1022.8 - 0.0
05/11:00am 20.0 15.8 3.7 34 7.8 ESE 15 20 8 11 1023.3 - 0.0
05/10:30am 19.5 15.4 4.4 37 7.3 E 15 22 8 12 1023.5 - 0.0
05/10:00am 19.1 14.7 4.8 39 6.9 E 17 20 9 11 1024.0 - 0.0
05/09:30am 17.7 13.3 4.6 42 6.3 ESE 17 24 9 13 1024.1 - 0.0
05/09:00am 16.7 11.8 5.0 46 5.6 ESE 20 28 11 15 1024.0 1023.4 0.0
05/08:30am 15.9 11.9 4.9 48 5.2 ESE 15 22 8 12 1023.9 - 0.0
05/08:00am 14.3 10.2 4.6 52 4.5 ESE 15 20 8 11 1023.6 - 0.0
05/07:30am 12.9 9.6 4.6 57 3.8 ESE 11 15 6 8 1023.3 - 0.0
05/07:00am 11.8 8.8 4.3 60 3.4 SE 9 13 5 7 1023.0 - 0.0
05/06:30am 12.0 8.6 4.2 59 3.5 SE 11 15 6 8 1022.7 - 0.0
05/06:00am 12.4 8.7 4.4 58 3.6 SE 13 15 7 8 1022.4 1021.9 0.0
05/05:30am 12.8 9.1 4.5 57 3.8 SE 13 15 7 8 1022.1 - 0.0
05/05:00am 13.1 9.4 4.5 56 4.0 SE 13 19 7 10 1021.8 - 0.0
05/04:30am 13.4 9.3 4.6 55 4.1 SE 15 20 8 11 1021.5 - 0.0
05/04:00am 13.7 9.6 4.6 54 4.2 SE 15 19 8 10 1021.4 - 0.0
05/03:30am 13.8 9.7 4.4 53 4.3 SE 15 20 8 11 1021.4 - 0.0
05/03:00am 14.0 9.9 4.3 52 4.5 SSE 15 19 8 10 1021.6 1021.1 0.0
05/02:30am 14.0 10.2 4.0 51 4.6 SSE 13 17 7 9 1021.7 - 0.0
05/02:00am 13.3 9.8 3.7 52 4.4 SSE 11 13 6 7 1021.7 - 0.0
05/01:30am 13.8 10.3 3.3 49 4.7 SSE 11 11 6 6 1021.7 - 0.0
05/01:00am 14.3 10.7 3.2 47 5.0 SSE 11 15 6 8 1021.8 - 0.0
05/12:30am 14.3 10.3 2.9 46 5.1 SSE 13 15 7 8 1022.0 - 0.0
05/12:00am 13.9 9.8 2.2 45 5.1 S 13 13 7 7 1022.0 1021.5 0.0
 
Date/Time
EST
Temp
°C
App
Temp
°C
Dew
Point
Rel
Hum
%
Delta-T
°C
Wind Press
QNH
hPa
Press
MSL
hPa
Rain
since 9 am
mm
Dir
 
Spd
km/h
Gust
km/h
Spd
kts
Gust
kts
04/11:30pm 14.1 10.7 1.7 43 5.4 S 9 11 5 6 1022.1 - 0.0
04/11:00pm 14.6 11.2 1.8 42 5.6 S 9 9 5 5 1022.2 - 0.0
04/10:30pm 15.4 12.1 2.2 41 5.9 S 9 9 5 5 1022.3 - 0.0
04/10:00pm 16.0 12.3 2.1 39 6.2 S 11 13 6 7 1022.2 - 0.0
04/09:30pm 16.4 12.7 2.1 38 6.4 SSW 11 13 6 7 1022.0 - 0.0
04/09:00pm 16.8 13.1 2.4 38 6.5 SSW 11 13 6 7 1021.9 1021.4 0.0
04/08:30pm 17.7 14.4 2.5 36 7.0 SSE 9 9 5 5 1021.7 - 0.0
04/08:00pm 18.3 15.5 3.0 36 7.1 SSE 7 9 4 5 1021.6 - 0.0
04/07:30pm 18.6 15.9 2.4 34 7.5 SSE 6 7 3 4 1021.4 - 0.0
04/07:00pm 19.6 16.8 2.9 33 7.8 S 7 11 4 6 1020.9 - 0.0
04/06:30pm 20.7 17.1 3.0 31 8.4 S 11 17 6 9 1020.6 - 0.0
04/06:00pm 21.3 17.3 3.0 30 8.7 S 13 17 7 9 1020.4 1019.9 0.0
04/05:30pm 21.8 17.1 3.0 29 9.0 SSE 17 20 9 11 1020.2 - 0.0
04/05:00pm 21.9 17.2 3.1 29 9.0 S 17 22 9 12 1020.1 - 0.0
04/04:30pm 22.2 18.7 3.3 29 9.1 SSW 11 20 6 11 1019.9 - 0.0
04/04:00pm 21.9 17.7 4.0 31 8.7 SSW 15 20 8 11 1020.0 - 0.0
04/03:30pm 22.6 19.2 4.2 30 9.1 S 11 19 6 10 1020.1 - 0.0
04/03:00pm 21.3 18.3 4.0 32 8.4 E 9 15 5 8 1020.3 1019.8 0.0
04/02:30pm 21.4 17.7 4.5 33 8.3 S 13 20 7 11 1020.6 - 0.0
04/02:00pm 20.9 17.1 4.0 33 8.2 SE 13 20 7 11 1021.0 - 0.0
04/01:30pm 20.5 16.4 4.5 35 7.8 S 15 20 8 11 1021.5 - 0.0
04/01:00pm 20.5 17.7 5.3 37 7.5 SE 9 17 5 9 1021.9 - 0.0
04/12:30pm 20.2 15.9 5.4 38 7.3 E 17 26 9 14 1022.4 - 0.0
04/12:00pm 19.8 16.8 6.2 41 6.8 SSE 11 19 6 10 1022.9 1022.4 0.0
04/11:30am 18.5 15.6 6.4 45 6.0 ESE 11 17 6 9 1023.4 - 0.0
04/11:00am 18.4 14.8 6.6 46 5.9 ESE 15 24 8 13 1023.9 - 0.0
04/10:30am 17.0 13.9 7.1 52 5.0 ESE 13 19 7 10 1024.1 - 0.0
04/10:00am 16.7 13.6 7.1 53 4.8 SE 13 20 7 11 1024.5 - 0.0
04/09:30am 15.2 12.7 6.5 56 4.3 SE 9 15 5 8 1024.6 - 0.0
04/09:00am 13.8 9.6 5.9 59 3.8 SSE 17 22 9 12 1024.6 1024.0 0.0
04/08:30am 13.3 9.2 6.2 62 3.4 SSE 17 20 9 11 1024.4 - 0.0
04/08:00am 11.6 8.9 5.5 66 2.8 SSE 9 13 5 7 1024.2 - 0.0
04/07:30am 9.5 7.1 4.1 69 2.4 S 6 7 3 4 1024.0 - 0.0
04/07:00am 8.3 5.8 3.6 72 2.0 SSE 6 9 3 5 1023.4 - 0.0
04/06:30am 7.2 4.2 2.3 71 2.0 S 7 7 4 4 1023.3 - 0.0
04/06:00am 8.0 5.3 2.7 69 2.2 SSE 6 7 3 4 1023.0 1022.5 0.0
04/05:30am 8.8 6.0 3.0 67 2.5 SSE 7 9 4 5 1022.8 - 0.0
04/05:00am 8.6 5.9 2.6 66 2.5 S 6 7 3 4 1022.7 - 0.0
04/04:30am 10.0 6.9 3.7 65 2.8 SSE 9 11 5 6 1022.5 - 0.0
04/04:00am 9.8 6.6 2.9 62 3.0 S 9 9 5 5 1022.2 - 0.0
04/03:30am 10.4 6.8 3.0 60 3.2 S 11 13 6 7 1022.2 - 0.0
04/03:00am 10.9 7.3 3.2 59 3.4 SSE 11 13 6 7 1022.2 1021.7 0.0
04/02:30am 11.1 7.9 3.2 58 3.5 S 9 11 5 6 1022.1 - 0.0
04/02:00am 11.5 8.3 3.0 56 3.7 S 9 11 5 6 1022.3 - 0.0
04/01:30am 11.8 8.6 3.1 55 3.8 S 9 13 5 7 1022.3 - 0.0
04/01:00am 12.2 8.6 2.9 53 4.1 SSW 11 13 6 7 1022.6 - 0.0
04/12:30am 12.6 9.1 3.3 53 4.2 S 11 13 6 7 1022.2 - 0.0
04/12:00am 13.0 9.0 3.1 51 4.4 S 13 13 7 7 1022.0 1021.5 0.0
 
Date/Time
EST
Temp
°C
App
Temp
°C
Dew
Point
Rel
Hum
%
Delta-T
°C
Wind Press
QNH
hPa
Press
MSL
hPa
Rain
since 9 am
mm
Dir
 
Spd
km/h
Gust
km/h
Spd
kts
Gust
kts
03/11:30pm 13.4 9.8 3.2 50 4.6 SSW 11 13 6 7 1022.0 - 0.0
03/11:00pm 14.0 10.1 3.5 49 4.8 SSW 13 15 7 8 1022.0 - 0.0
03/10:30pm 14.6 10.7 3.4 47 5.1 SSW 13 15 7 8 1022.1 - 0.0
03/10:00pm 14.9 11.4 3.4 46 5.3 SSW 11 13 6 7 1021.9 - 0.0
03/09:30pm 15.5 11.6 3.3 44 5.6 SSW 13 15 7 8 1021.8 - 0.0
03/09:00pm 16.2 11.5 3.3 42 5.9 SSW 17 22 9 12 1021.4 1020.9 0.0
03/08:30pm 16.6 11.9 3.0 40 6.2 SSW 17 24 9 13 1021.4 - 0.0
03/08:00pm 17.1 12.7 2.7 38 6.6 SSW 15 19 8 10 1020.8 - 0.0
03/07:30pm 17.4 13.0 2.6 37 6.8 SW 15 20 8 11 1020.5 - 0.0
03/07:00pm 17.8 13.0 2.5 36 7.0 SW 17 20 9 11 1020.1 - 0.0
03/06:30pm 18.5 12.7 2.4 34 7.4 SSW 22 28 12 15 1019.7 - 0.0
03/06:00pm 19.0 13.6 2.4 33 7.7 SW 20 30 11 16 1019.3 1018.7 0.0
03/05:30pm 19.8 14.1 2.6 32 8.0 SW 22 30 12 16 1018.9 - 0.0
03/05:00pm 20.3 13.8 2.6 31 8.3 SW 26 37 14 20 1018.7 - 0.0
03/04:30pm 20.7 15.0 3.0 31 8.4 SW 22 35 12 19 1018.4 - 0.0
03/04:00pm 21.1 15.1 3.3 31 8.5 SSW 24 33 13 18 1018.1 - 0.0
03/03:30pm 20.0 13.6 3.3 33 7.9 SSW 26 41 14 22 1017.8 - 0.0
03/03:00pm 20.5 13.7 3.3 32 8.2 SW 28 39 15 21 1017.6 1017.0 0.0
03/02:30pm 20.9 14.6 3.6 32 8.3 SW 26 39 14 21 1017.7 - 0.0
03/02:00pm 19.9 13.9 3.6 34 7.8 SW 24 35 13 19 1017.4 - 0.0
03/01:30pm 19.6 13.0 4.1 36 7.5 SSW 28 37 15 20 1017.5 - 0.0
03/01:04pm 19.4 12.1 4.3 37 7.3 SW 32 50 17 27 1017.7 - 0.0
03/01:00pm 19.4 11.8 4.0 36 7.4 SSW 33 50 18 27 1017.7 - 0.0
03/12:55pm 19.5 12.1 4.0 36 7.4 SSW 32 50 17 27 1017.6 - 0.0
03/12:30pm 19.1 11.6 3.7 36 7.3 SW 32 46 17 25 1018.0 - 0.0
03/12:00pm 18.6 11.1 4.4 39 6.8 SSW 33 44 18 24 1018.1 1017.5 0.0
03/11:30am 17.8 10.4 4.0 40 6.5 WSW 32 46 17 25 1018.3 - 0.0
03/11:00am 17.5 9.6 4.5 42 6.2 WSW 35 50 19 27 1018.5 - 0.0
03/10:37am 17.1 9.3 5.1 45 5.8 SW 35 54 19 29 1018.6 - 0.0
03/10:30am 16.9 8.8 5.2 46 5.6 SW 37 52 20 28 1018.6 - 0.0
03/10:00am 16.2 8.9 5.5 49 5.2 WSW 33 52 18 28 1018.5 - 0.0
03/09:46am 15.9 8.6 5.5 50 5.0 SW 33 52 18 28 1018.3 - 0.0
03/09:30am 15.6 8.0 5.8 52 4.7 WSW 35 46 19 25 1018.1 - 0.0
03/09:17am 15.7 8.1 5.6 51 4.9 SW 35 54 19 29 1017.8 - 0.0
03/09:00am 15.5 7.2 6.0 53 4.6 WSW 39 50 21 27 1017.4 1016.8 0.0
03/08:45am 15.3 7.8 6.1 54 4.5 WSW 35 54 19 29 1017.1 - 0.0
03/08:30am 15.1 7.6 6.1 55 4.4 WSW 35 46 19 25 1017.0 - 0.0
03/08:00am 14.5 7.3 6.1 57 4.1 W 33 44 18 24 1016.5 - 0.0
03/07:30am 14.0 7.7 5.6 57 4.0 W 28 44 15 24 1016.0 - 0.0
03/07:00am 13.2 8.2 4.6 56 4.0 W 20 30 11 16 1015.4 - 0.0
03/06:30am 13.3 8.2 3.9 53 4.3 W 20 30 11 16 1014.7 - 0.0
03/06:00am 13.9 7.2 3.9 51 4.6 W 28 39 15 21 1014.3 1013.7 0.0
03/05:30am 13.9 7.2 3.4 49 4.8 W 28 39 15 21 1013.8 - 0.0
03/05:08am 14.2 7.1 3.4 48 4.9 W 30 50 16 27 1013.6 - 0.0
03/05:00am 14.2 7.1 3.4 48 4.9 W 30 41 16 22 1013.4 - 0.0
03/04:30am 14.6 7.4 3.1 46 5.2 W 30 43 16 23 1013.1 - 0.0
03/04:00am 14.1 8.2 2.0 44 5.3 WNW 22 32 12 17 1012.9 - 0.0
03/03:30am 14.3 8.1 2.2 44 5.4 WNW 24 35 13 19 1013.1 - 0.0
03/03:00am 14.0 8.5 2.0 44 5.3 WNW 20 28 11 15 1013.2 1012.7 0.0
03/02:30am 14.3 9.0 1.9 43 5.5 WNW 19 28 10 15 1013.3 - 0.0
03/02:00am 14.4 9.1 1.7 42 5.6 WNW 19 26 10 14 1013.4 - 0.0
03/01:30am 14.6 9.2 1.2 40 5.8 WNW 19 24 10 13 1013.8 - 0.0
03/01:00am 14.7 9.2 0.5 38 6.1 WNW 19 22 10 12 1014.2 - 0.0
03/12:30am 14.8 9.1 -0.5 35 6.4 WNW 19 24 10 13 1014.4 - 0.0
03/12:00am 15.0 9.6 -1.5 32 6.8 WNW 17 26 9 14 1014.5 1014.0 0.0
 
Date/Time
EST
Temp
°C
App
Temp
°C
Dew
Point
Rel
Hum
%
Delta-T
°C
Wind Press
QNH
hPa
Press
MSL
hPa
Rain
since 9 am
mm
Dir
 
Spd
km/h
Gust
km/h
Spd
kts
Gust
kts
02/11:30pm 15.5 10.0 -2.4 29 7.3 WNW 17 24 9 13 1014.7 - 0.0
02/11:00pm 15.8 9.8 -3.1 27 7.6 W 19 26 10 14 1014.7 - 0.0
02/10:30pm 16.5 10.2 -4.1 24 8.1 W 20 30 11 16 1014.4 - 0.0
02/10:00pm 16.9 10.4 -5.5 21 8.6 W 20 28 11 15 1014.1 - 0.0
02/09:30pm 17.5 10.2 -6.3 19 9.1 W 24 37 13 20 1013.7 - 0.0
02/09:00pm 17.8 11.4 -5.4 20 9.0 W 20 30 11 16 1013.2 1012.7 0.0
02/08:30pm 18.5 11.3 -5.5 19 9.4 W 24 33 13 18 1012.7 - 0.0
02/08:00pm 18.9 12.2 -3.9 21 9.3 W 22 30 12 16 1012.4 - 0.0
02/07:30pm 19.7 12.0 -3.2 21 9.5 W 28 43 15 23 1011.9 - 0.0
02/07:00pm 20.3 13.0 0.2 26 9.0 W 28 44 15 24 1011.4 - 0.0
02/06:30pm 21.2 13.2 1.5 27 9.1 W 33 48 18 26 1010.7 - 0.0
02/06:00pm 22.7 14.2 1.1 24 10.0 W 35 57 19 31 1009.8 1009.2 0.0

Other Formats:

Comma delimited format used in spreadsheet applications
http://www.bom.gov.au/fwo/IDQ60801/IDQ60801.95492.axf

JavaScript Object Notation format (JSON) in row-major order
http://www.bom.gov.au/fwo/IDQ60801/IDQ60801.95492.json